createdAt,value
2019-03-06T00:01:21.212Z,100084.77
2019-03-06T00:03:52.583Z,100080.37
2019-03-06T00:06:25.207Z,100071.16
2019-03-06T00:08:56.581Z,100074.05
2019-03-06T00:11:27.971Z,100072.67
2019-03-06T00:13:59.283Z,100075.29
2019-03-06T00:16:30.702Z,100072.63
2019-03-06T00:19:02.077Z,100070.40
2019-03-06T00:21:33.426Z,100072.98
2019-03-06T00:24:04.651Z,100074.64
2019-03-06T00:26:36.002Z,100073.33
2019-03-06T00:29:07.378Z,100085.09
2019-03-06T00:31:39.195Z,100080.70
2019-03-06T00:34:10.514Z,100079.70
2019-03-06T00:36:41.857Z,100084.56
2019-03-06T00:39:13.153Z,100076.23
2019-03-06T00:41:44.505Z,100077.55
2019-03-06T00:44:15.812Z,100068.37
2019-03-06T00:46:47.231Z,100074.07
2019-03-06T00:49:18.467Z,100074.99
2019-03-06T00:51:49.828Z,100060.19
2019-03-06T00:54:21.237Z,100051.09
2019-03-06T00:56:52.536Z,100053.70
2019-03-06T00:59:23.843Z,100040.67
2019-03-06T01:01:55.207Z,100042.80
2019-03-06T01:04:26.454Z,100036.06
2019-03-06T01:06:58.983Z,100043.78
2019-03-06T01:09:30.289Z,100034.14
2019-03-06T01:12:01.731Z,100026.20
2019-03-06T01:14:33.041Z,100023.16
2019-03-06T01:17:04.380Z,100022.38
2019-03-06T01:19:43.017Z,100024.51
2019-03-06T01:22:15.448Z,100033.92
2019-03-06T01:24:46.765Z,100036.34
2019-03-06T01:27:18.114Z,100043.59
2019-03-06T01:29:49.351Z,100039.50
2019-03-06T01:32:20.769Z,100029.84
2019-03-06T01:35:10.672Z,100026.45
2019-03-06T01:37:59.695Z,100021.40
2019-03-06T01:40:32.647Z,100020.97
2019-03-06T01:43:10.173Z,100015.23
2019-03-06T01:45:41.456Z,100015.08
2019-03-06T01:48:12.804Z,100022.36
2019-03-06T01:50:44.045Z,100016.55
2019-03-06T01:53:15.330Z,99995.55
2019-03-06T01:55:46.634Z,99989.85
2019-03-06T01:58:17.915Z,99992.86
2019-03-06T02:00:49.204Z,99999.75
2019-03-06T02:03:20.557Z,100000.47
2019-03-06T02:05:51.934Z,99984.41
2019-03-06T02:08:23.354Z,99981.92
2019-03-06T02:10:54.862Z,99983.77
2019-03-06T02:13:26.201Z,99971.17
2019-03-06T02:15:57.504Z,99970.78
2019-03-06T02:18:29.028Z,99962.96
2019-03-06T02:21:00.620Z,99959.03
2019-03-06T02:23:31.880Z,99961.58
2019-03-06T02:26:03.403Z,99954.06
2019-03-06T02:28:34.770Z,99952.72
2019-03-06T02:31:06.142Z,99950.45
2019-03-06T02:33:37.555Z,99952.14
2019-03-06T02:36:08.800Z,99949.45
2019-03-06T02:38:40.097Z,99944.17
2019-03-06T02:41:11.397Z,99940.13
2019-03-06T02:43:42.679Z,99936.20
2019-03-06T02:46:13.915Z,99926.03
2019-03-06T02:48:45.312Z,99929.92
2019-03-06T02:51:16.619Z,99935.13
2019-03-06T02:53:47.928Z,99937.63
2019-03-06T02:56:19.286Z,99931.47
2019-03-06T02:58:55.107Z,99925.27
2019-03-06T03:01:27.981Z,99918.22
2019-03-06T03:04:02.754Z,99922.45
2019-03-06T03:06:35.766Z,99918.87
2019-03-06T03:09:16.554Z,99906.98
2019-03-06T03:11:47.923Z,99904.73
2019-03-06T03:14:19.277Z,99902.05
2019-03-06T03:16:50.566Z,99894.66
2019-03-06T03:19:21.871Z,99892.42
2019-03-06T03:21:54.184Z,99900.61
2019-03-06T03:24:25.545Z,99894.92
2019-03-06T03:26:56.795Z,99892.77
2019-03-06T03:29:28.348Z,99888.88
2019-03-06T03:31:59.581Z,99879.69
2019-03-06T03:34:30.976Z,99884.49
2019-03-06T03:37:03.249Z,99880.53
2019-03-06T03:39:34.626Z,99870.91
2019-03-06T03:42:05.995Z,99868.67
2019-03-06T03:44:37.554Z,99858.59
2019-03-06T03:47:16.600Z,99844.20
2019-03-06T03:49:47.872Z,99866.02
2019-03-06T03:52:19.417Z,99877.43
2019-03-06T03:54:51.666Z,99873.85
2019-03-06T03:57:23.192Z,99861.73
2019-03-06T03:59:55.810Z,99860.89
2019-03-06T04:02:27.533Z,99863.47
2019-03-06T04:04:58.966Z,99859.58
2019-03-06T04:07:30.402Z,99865.08
2019-03-06T04:10:01.811Z,99858.50
2019-03-06T04:12:34.240Z,99860.19
2019-03-06T04:15:18.572Z,99867.58
2019-03-06T04:17:50.778Z,99860.03
2019-03-06T04:20:23.116Z,99860.83
2019-03-06T04:22:54.344Z,99864.25
2019-03-06T04:25:26.242Z,99862.48
2019-03-06T04:27:57.645Z,99868.47
2019-03-06T04:30:29.991Z,99876.66
2019-03-06T04:33:01.293Z,99878.30
2019-03-06T04:35:32.581Z,99880.41
2019-03-06T04:38:04.187Z,99881.71
2019-03-06T04:40:35.732Z,99882.13
2019-03-06T04:43:07.083Z,99882.47
2019-03-06T04:45:38.533Z,99874.58
2019-03-06T04:48:09.830Z,99865.17
2019-03-06T04:50:41.397Z,99862.94
2019-03-06T04:53:12.810Z,99856.73
2019-03-06T04:55:45.282Z,99851.80
2019-03-06T04:58:16.564Z,99849.56
2019-03-06T05:00:47.955Z,99836.08
2019-03-06T05:03:19.301Z,99831.56
2019-03-06T05:05:52.187Z,99834.64
2019-03-06T05:08:23.450Z,99831.56
2019-03-06T05:10:54.857Z,99828.53
2019-03-06T05:13:26.134Z,99832.41
2019-03-06T05:15:57.496Z,99829.28
2019-03-06T05:18:36.372Z,99824.06
2019-03-06T05:21:08.778Z,99829.20
2019-03-06T05:23:40.050Z,99823.38
2019-03-06T05:26:11.374Z,99831.64
2019-03-06T05:28:42.800Z,99842.79
2019-03-06T05:31:15.283Z,99843.63
2019-03-06T05:33:46.540Z,99836.73
2019-03-06T05:36:40.937Z,99825.44
2019-03-06T05:39:12.892Z,99819.61
2019-03-06T05:41:44.837Z,99818.22
2019-03-06T05:44:16.240Z,99802.46
2019-03-06T05:46:49.225Z,99797.66
2019-03-06T05:49:20.526Z,99798.03
2019-03-06T05:51:51.843Z,99789.73
2019-03-06T05:54:23.101Z,99787.03
2019-03-06T05:56:54.431Z,99788.42
2019-03-06T05:59:25.777Z,99779.16
2019-03-06T06:01:57.198Z,99779.11
2019-03-06T06:04:34.452Z,99776.03
2019-03-06T06:07:05.866Z,99768.28
2019-03-06T06:09:37.312Z,99763.53
2019-03-06T06:12:08.653Z,99757.80
2019-03-06T06:14:40.107Z,99752.11
2019-03-06T06:17:11.509Z,99751.52
2019-03-06T06:19:43.084Z,99747.17
2019-03-06T06:22:31.097Z,99746.67
2019-03-06T06:25:02.515Z,99753.53
2019-03-06T06:27:34.241Z,99740.89
2019-03-06T06:30:11.211Z,99737.91
2019-03-06T06:32:42.682Z,99738.33
2019-03-06T06:35:15.172Z,99744.48
2019-03-06T06:37:46.562Z,99744.98
2019-03-06T06:40:17.872Z,99743.39
2019-03-06T06:42:49.250Z,99735.81
2019-03-06T06:45:21.934Z,99738.27
2019-03-06T06:48:15.817Z,99729.33
2019-03-06T06:51:18.211Z,99725.16
2019-03-06T06:53:54.281Z,99719.13
2019-03-06T06:57:02.582Z,99713.98
2019-03-06T06:59:41.442Z,99715.33
2019-03-06T07:02:52.031Z,99716.42
2019-03-06T07:05:25.093Z,99720.41
2019-03-06T07:08:14.369Z,99710.97
2019-03-06T07:10:50.117Z,99710.24
2019-03-06T07:13:38.263Z,99696.90
2019-03-06T07:16:20.017Z,99686.17
2019-03-06T07:19:09.099Z,99685.52
2019-03-06T07:22:32.678Z,99678.77
2019-03-06T07:24:38.617Z,99679.48
2019-03-06T07:27:15.064Z,99679.27
2019-03-06T07:29:57.881Z,99685.64
2019-03-06T07:32:47.241Z,99688.50
2019-03-06T07:35:53.359Z,99688.34
2019-03-06T07:38:24.962Z,99690.73
2019-03-06T07:41:00.445Z,99685.69
2019-03-06T07:43:53.263Z,99679.79
2019-03-06T07:46:43.494Z,99674.25
2019-03-06T07:49:22.497Z,99670.05
2019-03-06T07:52:15.108Z,99669.31
2019-03-06T07:54:48.035Z,99659.45
2019-03-06T07:57:19.179Z,99659.59
2019-03-06T07:59:50.514Z,99658.36
2019-03-06T08:02:54.029Z,99665.48
2019-03-06T08:05:28.223Z,99654.66
2019-03-06T08:07:59.696Z,99656.13
2019-03-06T08:10:32.832Z,99650.14
2019-03-06T08:13:08.627Z,99648.94
2019-03-06T08:15:41.772Z,99642.13
2019-03-06T08:18:17.796Z,99644.55
2019-03-06T08:20:50.938Z,99640.78
2019-03-06T08:23:30.131Z,99637.75
2019-03-06T08:26:01.455Z,99640.05
2019-03-06T08:28:33.073Z,99631.02
2019-03-06T08:31:12.633Z,99628.50
2019-03-06T08:33:44.071Z,99626.47
2019-03-06T08:36:15.470Z,99623.59
2019-03-06T08:38:46.720Z,99615.81
2019-03-06T08:41:19.639Z,99625.45
2019-03-06T08:43:51.023Z,99620.75
2019-03-06T08:46:30.003Z,99612.96
2019-03-06T08:49:12.043Z,99610.88
2019-03-06T08:51:53.165Z,99603.10
2019-03-06T08:54:36.861Z,99601.46
2019-03-06T08:57:17.461Z,99598.00
2019-03-06T08:59:59.109Z,99585.76
2019-03-06T09:02:37.961Z,99580.52
2019-03-06T09:05:17.587Z,99576.11
2019-03-06T09:07:56.641Z,99577.08
2019-03-06T09:10:32.796Z,99570.56
2019-03-06T09:13:11.327Z,99566.33
2019-03-06T09:15:44.306Z,99563.86
2019-03-06T09:18:29.271Z,99554.81
2019-03-06T09:21:02.238Z,99547.89
2019-03-06T09:23:39.019Z,99553.66
2019-03-06T09:26:14.896Z,99553.70
2019-03-06T09:28:48.067Z,99552.92
2019-03-06T09:31:22.064Z,99549.50
2019-03-06T09:33:56.350Z,99540.36
2019-03-06T09:36:35.091Z,99540.38
2019-03-06T09:39:08.024Z,99546.09
2019-03-06T09:41:41.133Z,99541.72
2019-03-06T09:44:23.156Z,99540.84
2019-03-06T09:46:59.250Z,99542.22
2019-03-06T09:49:47.769Z,99533.00
2019-03-06T09:52:20.994Z,99527.29
2019-03-06T09:54:55.099Z,99517.20
2019-03-06T09:57:30.889Z,99508.43
2019-03-06T10:00:03.913Z,99506.69
2019-03-06T10:02:44.322Z,99504.53
2019-03-06T10:05:17.540Z,99500.59
2019-03-06T10:07:50.750Z,99494.89
2019-03-06T10:10:29.620Z,99485.69
2019-03-06T10:13:20.739Z,99491.37
2019-03-06T10:15:56.458Z,99481.64
2019-03-06T10:18:41.478Z,99483.34
2019-03-06T10:21:13.120Z,99478.88
2019-03-06T10:23:45.479Z,99476.20
2019-03-06T10:26:17.271Z,99473.97
2019-03-06T10:28:48.773Z,99472.95
2019-03-06T10:31:21.003Z,99471.03
2019-03-06T10:33:52.348Z,99470.33
2019-03-06T10:36:23.719Z,99460.61
2019-03-06T10:38:55.132Z,99451.90
2019-03-06T10:41:28.218Z,99449.41
2019-03-06T10:44:02.797Z,99439.58
2019-03-06T10:46:34.466Z,99439.73
2019-03-06T10:49:06.438Z,99433.25
2019-03-06T10:51:37.924Z,99435.94
2019-03-06T10:54:09.494Z,99428.59
2019-03-06T10:56:41.200Z,99421.13
2019-03-06T10:59:12.592Z,99423.11
2019-03-06T11:01:45.188Z,99418.89
2019-03-06T11:04:18.326Z,99408.49
2019-03-06T11:06:58.832Z,99399.58
2019-03-06T11:09:30.647Z,99397.13
2019-03-06T11:12:02.505Z,99386.44
2019-03-06T11:14:35.703Z,99381.65
2019-03-06T11:17:07.504Z,99379.22
2019-03-06T11:19:39.084Z,99375.52
2019-03-06T11:22:10.677Z,99365.58
2019-03-06T11:24:42.537Z,99363.56
2019-03-06T11:27:13.968Z,99366.14
2019-03-06T11:29:45.584Z,99358.61
2019-03-06T11:32:17.531Z,99355.03
2019-03-06T11:34:49.334Z,99351.85
2019-03-06T11:37:20.884Z,99360.34
2019-03-06T11:39:52.328Z,99356.26
2019-03-06T11:42:23.739Z,99344.53
2019-03-06T11:44:56.724Z,99343.20
2019-03-06T11:47:29.166Z,99335.42
2019-03-06T11:50:00.723Z,99325.56
2019-03-06T11:52:34.788Z,99325.44
2019-03-06T11:55:12.941Z,99317.16
2019-03-06T11:57:45.598Z,99305.70
2019-03-06T12:00:37.869Z,99300.34
2019-03-06T12:03:09.493Z,99301.91
2019-03-06T12:05:41.382Z,99293.67
2019-03-06T12:08:17.116Z,99295.19
2019-03-06T12:10:49.066Z,99293.10
2019-03-06T12:13:20.591Z,99289.92
2019-03-06T12:15:52.857Z,99282.58
2019-03-06T12:18:25.479Z,99278.42
2019-03-06T12:20:57.051Z,99264.20
2019-03-06T12:23:28.748Z,99264.63
2019-03-06T12:26:01.718Z,99259.55
2019-03-06T12:28:33.198Z,99246.13
2019-03-06T12:31:08.290Z,99239.67
2019-03-06T12:33:39.818Z,99237.47
2019-03-06T12:36:12.263Z,99232.91
2019-03-06T12:38:43.669Z,99225.34
2019-03-06T12:41:16.524Z,99212.88
2019-03-06T12:43:47.872Z,99202.03
2019-03-06T12:46:23.776Z,99196.34
2019-03-06T12:48:59.642Z,99191.61
2019-03-06T12:51:31.508Z,99195.66
2019-03-06T12:54:03.008Z,99183.91
2019-03-06T12:56:34.456Z,99191.64
2019-03-06T12:59:06.814Z,99178.94
2019-03-06T13:01:39.192Z,99177.40
2019-03-06T13:04:10.802Z,99176.39
2019-03-06T13:06:44.291Z,99174.59
2019-03-06T13:09:20.162Z,99168.77
2019-03-06T13:11:51.717Z,99165.69
2019-03-06T13:14:23.109Z,99159.40
2019-03-06T13:16:54.528Z,99158.73
2019-03-06T13:19:27.389Z,99146.13
2019-03-06T13:21:58.846Z,99146.70
2019-03-06T13:24:31.864Z,99142.91
2019-03-06T13:27:05.326Z,99148.28
2019-03-06T13:29:36.900Z,99143.11
2019-03-06T13:32:11.771Z,99137.83
2019-03-06T13:34:50.135Z,99138.09
2019-03-06T13:37:14.334Z,99134.66
2019-03-06T13:39:47.331Z,99133.91
2019-03-06T13:42:18.850Z,99126.44
2019-03-06T13:44:50.176Z,99131.12
2019-03-06T13:47:21.547Z,99116.02
2019-03-06T13:49:52.967Z,99127.13
2019-03-06T13:52:24.480Z,99114.88
2019-03-06T13:54:55.881Z,99112.58
2019-03-06T13:57:27.407Z,99107.02
2019-03-06T13:59:58.821Z,99098.02
2019-03-06T14:02:30.140Z,99097.77
2019-03-06T14:05:02.752Z,99098.63
2019-03-06T14:07:35.715Z,99090.58
2019-03-06T14:10:12.296Z,99091.97
2019-03-06T14:12:47.558Z,99090.22
2019-03-06T14:15:20.311Z,99092.97
2019-03-06T14:17:54.985Z,99083.16
2019-03-06T14:20:26.328Z,99082.61
2019-03-06T14:22:57.817Z,99085.09
2019-03-06T14:25:29.621Z,99084.99
2019-03-06T14:28:01.052Z,99087.24
2019-03-06T14:30:38.785Z,99086.00
2019-03-06T14:33:10.279Z,99079.53
2019-03-06T14:35:41.586Z,99085.14
2019-03-06T14:38:13.099Z,99071.09
2019-03-06T14:40:45.521Z,99070.81
2019-03-06T14:43:17.074Z,99063.48
2019-03-06T14:46:00.027Z,99065.95
2019-03-06T14:48:31.511Z,99053.52
2019-03-06T14:51:03.810Z,99048.23
2019-03-06T14:53:35.257Z,99046.50
2019-03-06T14:56:09.441Z,99048.42
2019-03-06T14:58:40.735Z,99050.71
2019-03-06T15:01:12.131Z,99040.70
2019-03-06T15:03:43.579Z,99040.34
2019-03-06T15:06:15.015Z,99029.75
2019-03-06T15:08:46.387Z,99029.84
2019-03-06T15:11:18.292Z,99032.13
2019-03-06T15:13:51.608Z,99027.00
2019-03-06T15:16:22.915Z,99015.75
2019-03-06T15:18:54.319Z,99015.59
2019-03-06T15:21:25.656Z,99003.89
2019-03-06T15:23:57.294Z,99007.55
2019-03-06T15:26:28.669Z,98993.51
2019-03-06T15:29:00.031Z,98999.78
2019-03-06T15:31:31.340Z,98998.95
2019-03-06T15:34:13.079Z,98999.45
2019-03-06T15:36:44.319Z,98994.22
2019-03-06T15:39:31.055Z,98991.22
2019-03-06T15:42:03.459Z,98993.92
2019-03-06T15:44:35.223Z,98996.20
2019-03-06T15:47:06.783Z,98990.02
2019-03-06T15:49:38.292Z,98982.51
2019-03-06T15:52:14.431Z,98982.55
2019-03-06T15:54:45.661Z,98976.78
2019-03-06T15:57:17.016Z,98969.31
2019-03-06T15:59:48.344Z,98973.33
2019-03-06T16:02:24.423Z,98972.91
2019-03-06T16:04:55.872Z,98975.16
2019-03-06T16:07:28.401Z,98972.91
2019-03-06T16:10:00.060Z,98982.63
2019-03-06T16:12:31.560Z,98977.31
2019-03-06T16:15:05.366Z,98979.55
2019-03-06T16:17:43.290Z,98970.67
2019-03-06T16:20:18.928Z,98969.34
2019-03-06T16:22:50.941Z,98966.77
2019-03-06T16:25:25.142Z,98969.09
2019-03-06T16:27:57.120Z,98970.55
2019-03-06T16:30:30.604Z,98976.39
2019-03-06T16:33:02.113Z,98980.50
2019-03-06T16:35:34.558Z,98978.45
2019-03-06T16:38:06.152Z,98975.00
2019-03-06T16:40:37.530Z,98970.88
2019-03-06T16:43:09.921Z,98971.45
2019-03-06T16:45:41.341Z,98973.38
2019-03-06T16:48:12.799Z,98973.53
2019-03-06T16:50:44.147Z,98965.23
2019-03-06T16:53:16.101Z,98962.20
2019-03-06T16:55:52.264Z,98959.23
2019-03-06T16:58:23.577Z,98958.89
2019-03-06T17:00:56.492Z,98953.23
2019-03-06T17:03:27.806Z,98951.15
2019-03-06T17:06:05.029Z,98945.01
2019-03-06T17:08:36.550Z,98942.50
2019-03-06T17:11:10.732Z,98947.45
2019-03-06T17:13:42.387Z,98939.61
2019-03-06T17:16:13.877Z,98930.02
2019-03-06T17:18:46.844Z,98936.67
2019-03-06T17:21:18.175Z,98928.34
2019-03-06T17:23:50.663Z,98918.64
2019-03-06T17:26:30.743Z,98916.90
2019-03-06T17:29:11.803Z,98924.08
2019-03-06T17:31:44.453Z,98919.83
2019-03-06T17:34:16.141Z,98912.84
2019-03-06T17:36:47.494Z,98905.42
2019-03-06T17:39:20.733Z,98909.84
2019-03-06T17:41:51.967Z,98911.52
2019-03-06T17:44:23.390Z,98910.62
2019-03-06T17:46:55.086Z,98908.91
2019-03-06T17:49:26.494Z,98915.56
2019-03-06T17:51:57.944Z,98908.07
2019-03-06T17:54:33.575Z,98907.27
2019-03-06T17:57:05.317Z,98907.82
2019-03-06T17:59:36.910Z,98904.43
2019-03-06T18:02:10.029Z,98897.48
2019-03-06T18:04:41.460Z,98887.41
2019-03-06T18:07:12.853Z,98876.81
2019-03-06T18:09:48.132Z,98868.05
2019-03-06T18:12:19.675Z,98866.31
2019-03-06T18:14:52.708Z,98857.59
2019-03-06T18:17:24.427Z,98847.94
2019-03-06T18:19:56.167Z,98851.48
2019-03-06T18:22:28.237Z,98844.45
2019-03-06T18:25:00.394Z,98841.90
2019-03-06T18:27:31.993Z,98845.91
2019-03-06T18:30:05.102Z,98836.60
2019-03-06T18:32:40.566Z,98835.80
2019-03-06T18:35:21.738Z,98833.73
2019-03-06T18:37:57.351Z,98824.04
2019-03-06T18:40:29.648Z,98838.28
2019-03-06T18:43:01.826Z,98839.22
2019-03-06T18:45:33.440Z,98834.89
2019-03-06T18:48:05.560Z,98827.47
2019-03-06T18:50:41.532Z,98827.02
2019-03-06T18:53:13.070Z,98825.33
2019-03-06T18:55:44.779Z,98837.75
2019-03-06T18:58:17.339Z,98834.72
2019-03-06T19:00:50.451Z,98828.58
2019-03-06T19:03:21.863Z,98817.13
2019-03-06T19:05:53.275Z,98815.89
2019-03-06T19:08:31.099Z,98822.15
2019-03-06T19:10:58.149Z,98803.27
2019-03-06T19:13:29.671Z,98803.63
2019-03-06T19:16:01.224Z,98797.88
2019-03-06T19:18:32.793Z,98794.88
2019-03-06T19:21:04.203Z,98801.70
2019-03-06T19:23:41.507Z,98793.41
2019-03-06T19:26:12.946Z,98785.53
2019-03-06T19:28:46.042Z,98794.37
2019-03-06T19:31:17.792Z,98791.81
2019-03-06T19:33:49.381Z,98781.68
2019-03-06T19:36:20.847Z,98779.94
2019-03-06T19:38:55.344Z,98783.94
2019-03-06T19:41:26.702Z,98791.03
2019-03-06T19:43:58.222Z,98777.41
2019-03-06T19:46:29.826Z,98785.28
2019-03-06T19:49:01.116Z,98778.22
2019-03-06T19:51:32.448Z,98782.70
2019-03-06T19:54:05.016Z,98790.30
2019-03-06T19:56:36.594Z,98772.78
2019-03-06T19:59:08.997Z,98767.55
2019-03-06T20:01:52.436Z,98752.55
2019-03-06T20:04:24.035Z,98771.06
2019-03-06T20:06:55.505Z,98763.24
2019-03-06T20:09:28.255Z,98773.00
2019-03-06T20:11:59.739Z,98776.15
2019-03-06T20:14:31.471Z,98769.48
2019-03-06T20:17:03.107Z,98770.36
2019-03-06T20:19:34.861Z,98755.84
2019-03-06T20:22:06.364Z,98767.34
2019-03-06T20:24:38.051Z,98742.83
2019-03-06T20:27:09.755Z,98730.42
2019-03-06T20:29:41.211Z,98727.27
2019-03-06T20:32:12.884Z,98730.31
2019-03-06T20:34:44.286Z,98710.88
2019-03-06T20:37:15.652Z,98716.16
2019-03-06T20:39:47.539Z,98714.87
2019-03-06T20:42:18.981Z,98706.97
2019-03-06T20:44:51.955Z,98708.34
2019-03-06T20:47:30.152Z,98715.52
2019-03-06T20:50:01.487Z,98707.37
2019-03-06T20:52:33.074Z,98718.08
2019-03-06T20:55:06.197Z,98716.80
2019-03-06T20:57:37.803Z,98714.62
2019-03-06T21:00:16.025Z,98702.28
2019-03-06T21:02:47.771Z,98705.34
2019-03-06T21:05:19.423Z,98707.95
2019-03-06T21:07:50.852Z,98720.37
2019-03-06T21:10:23.361Z,98709.46
2019-03-06T21:12:55.022Z,98708.98
2019-03-06T21:15:26.492Z,98709.88
2019-03-06T21:17:57.896Z,98703.30
2019-03-06T21:20:29.236Z,98691.45
2019-03-06T21:23:00.788Z,98695.38
2019-03-06T21:25:32.366Z,98691.11
2019-03-06T21:28:03.681Z,98693.82
2019-03-06T21:30:36.597Z,98687.69
2019-03-06T21:33:08.332Z,98694.34
2019-03-06T21:35:39.765Z,98688.61
2019-03-06T21:38:11.187Z,98685.10
2019-03-06T21:40:42.580Z,98702.30
2019-03-06T21:43:14.123Z,98709.45
2019-03-06T21:45:45.443Z,98712.54
2019-03-06T21:48:16.760Z,98712.06
2019-03-06T21:50:48.173Z,98711.17
2019-03-06T21:53:19.542Z,98719.98
2019-03-06T21:55:52.059Z,98709.00
2019-03-06T21:58:23.571Z,98715.18
2019-03-06T22:00:54.974Z,98699.36
2019-03-06T22:03:30.090Z,98700.73
2019-03-06T22:06:01.364Z,98692.36
2019-03-06T22:08:32.977Z,98686.68
2019-03-06T22:11:04.283Z,98688.50
2019-03-06T22:13:35.594Z,98680.61
2019-03-06T22:16:06.929Z,98664.79
2019-03-06T22:18:39.821Z,98666.48
2019-03-06T22:21:11.137Z,98666.45
2019-03-06T22:23:42.504Z,98654.58
2019-03-06T22:26:13.762Z,98649.66
2019-03-06T22:28:45.418Z,98648.39
2019-03-06T22:31:16.670Z,98655.92
2019-03-06T22:33:48.258Z,98649.39
2019-03-06T22:36:19.582Z,98652.56
2019-03-06T22:38:51.476Z,98651.86
2019-03-06T22:41:23.690Z,98652.39
2019-03-06T22:43:55.196Z,98652.95
2019-03-06T22:46:26.503Z,98653.90
2019-03-06T22:48:57.997Z,98643.37
2019-03-06T22:51:29.315Z,98642.92
2019-03-06T22:54:00.893Z,98639.88
2019-03-06T22:56:32.348Z,98639.44
2019-03-06T22:59:03.755Z,98638.54
2019-03-06T23:01:36.576Z,98635.00
2019-03-06T23:04:08.345Z,98638.96
2019-03-06T23:06:39.727Z,98630.59
2019-03-06T23:09:11.637Z,98630.58
2019-03-06T23:11:43.714Z,98626.64
2019-03-06T23:14:15.150Z,98620.05
2019-03-06T23:16:46.411Z,98618.67
2019-03-06T23:19:17.764Z,98614.34
2019-03-06T23:21:49.008Z,98616.08
2019-03-06T23:24:20.359Z,98601.15
2019-03-06T23:26:51.690Z,98598.91
2019-03-06T23:29:23.223Z,98592.70
2019-03-06T23:31:54.457Z,98590.25
2019-03-06T23:34:26.013Z,98582.80
2019-03-06T23:36:57.288Z,98574.89
2019-03-06T23:39:28.817Z,98577.60
2019-03-06T23:42:00.357Z,98575.94
2019-03-06T23:44:31.729Z,98576.41
2019-03-06T23:47:03.009Z,98574.21
2019-03-06T23:49:36.885Z,98573.34
2019-03-06T23:52:09.180Z,98567.67
2019-03-06T23:54:40.731Z,98572.09
2019-03-06T23:57:12.036Z,98573.44
2019-03-06T23:59:43.428Z,98569.41
